Terminal Aerodrome Forecast
Issued by NWS Mobile, AL

Home | Current Version | Previous Version | Text Only | Print | Product List | Glossary On
Versions: 1 2 3 4 5 6 7 8 9 10 11 12 13 14 15 16 17 18 19 20 21 22 23 24
000
FTUS44 KMOB 212340
TAFPNS
TAF
KPNS 212340Z 2200/2224 12004KT P6SM VCTS SCT035CB BKN250
     FM220200 09003KT P6SM BKN250
     FM221700 17009KT P6SM VCTS SCT035CB SCT250=

USA.gov is the U.S. government's official web portal to all federal, state and local government web resources and services.